Saturday, February 24, 2018, 9:56 AM GMT
Back to Local

CYYG, Charlottetown, P. E. I.

Location: , , Canada Lat: 46.283
Local Time: 9:56 AM GMT ( 9:56 GMT) Lon: -63.133
Time Zone: GMT Elev: 157 ft

Show me the last for .
Show Coded

Time T Td Feel RH Dir Speed Gust Alt SLP Vis Weather Sky Remarks
2018-02-24 09:43 28 27 19 92 200° 10 - 29.78 29.80 15 OVC012 None
2018-02-24 09:00 27 27 16 100 190° 13 - 29.80 29.81 6 SN DRSN FEW004 OVC016 None
2018-02-24 08:55 27 27 15 100 200° 14 - 29.81 29.82 6 -SN DRSN SCT004 OVC017 None
2018-02-24 08:31 27 25 14 92 190° 16 - 29.81 29.83 2 -SN DRSN BKN004 OVC020 Pressure falling rapidly
2018-02-24 08:00 27 25 14 92 180° 16 - 29.84 29.85 5 -SN DRSN BKN004 OVC020 Pressure falling rapidly
2018-02-24 07:42 27 25 14 92 190° 17 - 29.86 29.87 6 -SN DRSN BKN004 OVC020 Pressure falling rapidly
2018-02-24 07:35 27 25 12 92 190° 16 22 29.86 29.88 3 -SN DRSN BKN004 OVC022 Pressure falling rapidly
2018-02-24 07:00 25 25 11 100 180° 17 - 29.90 29.92 8 -SN DRSN SCT005 OVC016 Pressure falling rapidly
2018-02-24 06:54 25 23 12 92 180° 15 - 29.91 29.92 5 -SN DRSN SCT005 OVC022 Pressure falling rapidly
2018-02-24 06:00 25 23 11 92 190° 14 20 29.99 30.01 1 -SN DRSN BKN005 OVC022 Pressure falling rapidly
2018-02-24 05:14 25 23 10 92 200° 16 22 30.06 30.07 1 -SN DRSN OVC018 Pressure falling rapidly
2018-02-24 05:10 25 23 12 92 200° 16 - 30.06 30.08 0 -SN DRSN OVC017 None
2018-02-24 05:00 25 21 9 85 210° 15 24 30.08 30.09 1 -SN DRSN OVC021 None
2018-02-24 04:00 27 19 13 73 190° 20 - 30.08 30.09 1 -SN DRSN OVC029 None
2018-02-24 03:53 27 18 12 68 190° 18 24 30.09 30.10 1 -SN DRSN OVC027 None
2018-02-24 03:50 27 18 12 68 190° 17 24 30.09 30.10 3 -SN OVC027 None
2018-02-24 03:42 27 18 12 68 190° 15 24 30.09 30.10 10 -SN OVC037 None
2018-02-24 03:00 25 18 13 73 170° 13 - 30.13 30.14 15 OVC079 Pressure falling rapidly
2018-02-24 02:00 23 18 11 79 190° 14 - 30.23 30.24 15 OVC073 Pressure falling rapidly
2018-02-24 01:00 23 16 13 73 160° 9 - 30.28 30.29 15 OVC100 Pressure falling rapidly
2018-02-24 00:00 21 14 12 73 190° 8 - 30.34 30.35 15 BKN100 Pressure falling rapidly
2018-02-23 23:00 23 12 15 62 200° 7 - 30.40 30.41 15 BKN160 None
2018-02-23 22:00 23 9 18 53 180° 3 - 30.41 30.43 15 SCT100 OVC220 Pressure falling rapidly
2018-02-23 21:00 25 5 17 41 240° 7 - 30.47 30.48 15 FEW035 FEW180 OVC230 None
2018-02-23 20:00 25 9 19 49 240° 5 - 30.49 30.51 15 FEW220 None
2018-02-23 19:00 25 12 17 58 260° 7 - 30.53 30.54 15 FEW035 BKN220 None
2018-02-23 18:00 25 9 16 49 310° 8 - 30.58 30.59 15 FEW035 BKN230 None
2018-02-23 17:00 25 9 15 49 260° 10 - 30.62 30.63 15 FEW035 SCT230 None
2018-02-23 16:00 23 10 17 57 320° 5 - 30.63 30.65 15 SCT031 None
2018-02-23 15:00 21 9 14 57 310° 6 - 30.65 30.67 15 BKN025 None
2018-02-23 14:00 19 10 10 67 280° 7 - 30.67 30.68 15 BKN025 None
2018-02-23 13:00 18 10 7 72 310° 8 - 30.67 30.68 15 -SHSN SCT018 None
2018-02-23 12:24 18 10 8 72 280° 7 - 30.67 30.68 15 -SHSN FEW025 None
2018-02-23 12:00 18 9 9 67 270° 6 - 30.67 30.68 15 VCSH FEW025 None
2018-02-23 11:00 16 7 10 66 290° 3 - 30.65 30.67 15 SCT025 None
2018-02-23 10:00 16 7 9 66 330° 5 - 30.65 30.67 15 FEW029 None

Support USWX by starting your Amazon purchase here.